Time;durP1;ratioP1;P1;durP2;ratioP2;P2;SDS_P1;SDS_P2;PMS_P1;PMS_P2;Temp;Humidity;BMP_temperature;BMP_pressure;BME280_temperature;BME280_humidity;BME280_pressure;Samples;Min_cycle;Max_cycle;Signal;HPM_P1;HPM_P2
2022/07/25 00:03:31;;;;;;;5.57;4.10;;;14.30;99.90;;;;;;9994896;29;20049;-83
2022/07/25 00:08:31;;;;;;;5.50;3.97;;;14.30;99.90;;;;;;9995370;29;20129;-83
2022/07/25 00:13:32;;;;;;;5.65;4.00;;;14.30;99.90;;;;;;9993305;29;20794;-83
2022/07/25 00:18:33;;;;;;;4.93;4.07;;;14.30;99.90;;;;;;10009184;29;20125;-82
2022/07/25 00:23:33;;;;;;;6.22;4.10;;;14.30;99.90;;;;;;10009405;29;20061;-84
2022/07/25 00:28:34;;;;;;;6.20;3.97;;;14.20;99.90;;;;;;10009942;29;20080;-83
2022/07/25 00:33:35;;;;;;;5.55;4.03;;;14.20;99.90;;;;;;10011507;29;20049;-83
2022/07/25 00:38:36;;;;;;;4.80;3.95;;;14.20;99.90;;;;;;10008548;29;20522;-83
2022/07/25 00:43:36;;;;;;;6.22;3.92;;;14.20;99.90;;;;;;10008314;29;20040;-83
2022/07/25 00:48:37;;;;;;;5.55;4.18;;;14.10;99.90;;;;;;10008193;29;20505;-83
2022/07/25 00:53:38;;;;;;;6.63;4.22;;;14.10;99.90;;;;;;10007985;29;20026;-83
2022/07/25 00:58:39;;;;;;;7.18;4.50;;;14.00;99.90;;;;;;10008808;29;20046;-82
2022/07/25 01:03:39;;;;;;;6.03;3.90;;;14.10;99.90;;;;;;10015972;29;20118;-84
2022/07/25 01:08:40;;;;;;;6.07;4.35;;;14.00;99.90;;;;;;10016212;29;20113;-83
2022/07/25 01:13:41;;;;;;;5.80;4.82;;;14.00;99.90;;;;;;10014135;29;20034;-84
2022/07/25 01:18:42;;;;;;;8.43;4.68;;;14.00;99.90;;;;;;10014373;29;20038;-83
2022/07/25 01:23:42;;;;;;;5.18;4.25;;;14.00;99.90;;;;;;10015120;29;22049;-83
2022/07/25 01:28:43;;;;;;;5.57;3.47;;;14.00;99.90;;;;;;10015386;29;20432;-84
2022/07/25 01:33:43;;;;;;;6.47;4.10;;;14.00;99.90;;;;;;10020026;29;20044;-83
2022/07/25 01:38:44;;;;;;;5.63;3.70;;;14.10;99.90;;;;;;10015267;29;20041;-83
2022/07/25 01:43:44;;;;;;;6.88;4.53;;;14.10;99.90;;;;;;10022299;24;20062;-84
2022/07/25 01:48:45;;;;;;;8.88;4.53;;;14.00;99.90;;;;;;10035569;29;20061;-83
2022/07/25 01:53:46;;;;;;;8.80;4.47;;;14.00;99.90;;;;;;10029711;29;20045;-83
2022/07/25 01:58:46;;;;;;;5.57;4.57;;;14.00;99.90;;;;;;10014306;29;20537;-83
2022/07/25 02:03:47;;;;;;;9.32;5.47;;;13.90;99.90;;;;;;10032831;29;20091;-83
2022/07/25 02:08:47;;;;;;;7.65;5.30;;;13.70;99.90;;;;;;10041743;29;20790;-84
2022/07/25 02:13:48;;;;;;;8.82;5.80;;;13.60;99.90;;;;;;10032379;29;20046;-83
2022/07/25 02:18:48;;;;;;;9.15;6.03;;;13.60;99.90;;;;;;10010245;29;20448;-82
2022/07/25 02:23:49;;;;;;;8.88;5.47;;;13.60;99.90;;;;;;9995746;29;20022;-83
2022/07/25 02:28:50;;;;;;;10.40;5.60;;;13.40;99.90;;;;;;9994396;29;20064;-83
2022/07/25 02:33:50;;;;;;;8.65;5.93;;;13.40;99.90;;;;;;10012486;29;20034;-83
2022/07/25 02:38:51;;;;;;;8.30;6.00;;;13.40;99.90;;;;;;10012300;29;20054;-83
2022/07/25 02:43:51;;;;;;;10.25;6.10;;;13.50;99.90;;;;;;10012749;29;20054;-83
2022/07/25 02:48:52;;;;;;;9.75;6.05;;;13.30;99.90;;;;;;10011786;29;20436;-83
2022/07/25 02:53:53;;;;;;;9.00;5.93;;;13.40;99.90;;;;;;10012265;29;20054;-82
2022/07/25 02:58:53;;;;;;;9.27;5.95;;;13.40;99.90;;;;;;10007158;29;20116;-83
2022/07/25 03:03:54;;;;;;;160.23;20.33;;;13.40;99.90;;;;;;10006613;29;20042;-84
2022/07/25 03:08:54;;;;;;;8.90;5.55;;;13.50;99.90;;;;;;10011498;29;20131;-84
2022/07/25 03:13:55;;;;;;;7.63;5.45;;;13.50;99.90;;;;;;9995181;29;20049;-82
2022/07/25 03:18:56;;;;;;;10.15;5.35;;;13.40;99.90;;;;;;10008729;29;20046;-82
2022/07/25 03:23:56;;;;;;;10.55;5.28;;;13.40;99.90;;;;;;10010312;29;20170;-83
2022/07/25 03:28:57;;;;;;;9.55;5.60;;;13.40;99.90;;;;;;10006262;29;20380;-83
2022/07/25 03:33:57;;;;;;;9.40;5.43;;;13.40;99.90;;;;;;9994973;29;20063;-84
2022/07/25 03:38:58;;;;;;;8.85;5.90;;;13.50;99.90;;;;;;10011052;29;20542;-83
2022/07/25 03:43:59;;;;;;;7.35;5.38;;;13.40;99.90;;;;;;9994050;29;20065;-84
2022/07/25 03:48:59;;;;;;;8.68;6.53;;;13.40;99.90;;;;;;10008310;29;20459;-83
2022/07/25 03:54:03;;;;;;;8.40;6.05;;;13.40;99.90;;;;;;10010184;29;20042;-82
2022/07/25 03:59:04;;;;;;;10.02;6.88;;;13.30;99.90;;;;;;9993646;29;20410;-83
2022/07/25 04:04:05;;;;;;;8.77;6.72;;;13.40;99.90;;;;;;10005376;29;20037;-83
2022/07/25 04:09:09;;;;;;;9.50;5.97;;;13.40;99.90;;;;;;10008316;29;20033;-82
2022/07/25 04:14:09;;;;;;;63.45;57.40;;;13.50;99.90;;;;;;10007741;29;20621;-82
2022/07/25 04:19:10;;;;;;;6.95;4.50;;;13.70;99.90;;;;;;9988101;29;20048;-82
2022/07/25 04:24:10;;;;;;;8.32;7.53;;;13.80;99.90;;;;;;9993520;29;20022;-82
2022/07/25 04:29:11;;;;;;;8.77;6.43;;;14.00;99.90;;;;;;10009603;29;20038;-88
2022/07/25 04:34:11;;;;;;;7.57;5.47;;;14.20;99.90;;;;;;9989821;29;20030;-81
2022/07/25 04:39:12;;;;;;;12.65;5.53;;;14.50;99.90;;;;;;10013459;29;20098;-83
2022/07/25 04:44:13;;;;;;;9.13;6.15;;;14.60;99.90;;;;;;10001434;29;20138;-82
2022/07/25 04:49:13;;;;;;;8.32;5.43;;;14.90;99.90;;;;;;10007757;29;20038;-82
2022/07/25 04:54:14;;;;;;;8.15;5.93;;;15.00;99.90;;;;;;10010880;29;20526;-81
2022/07/25 04:59:15;;;;;;;9.80;6.00;;;15.20;99.90;;;;;;10016288;29;20073;-81
2022/07/25 05:04:16;;;;;;;9.70;6.50;;;15.30;99.90;;;;;;10014245;29;20065;-81
2022/07/25 05:09:16;;;;;;;13.20;7.43;;;15.50;99.90;;;;;;10015876;29;20121;-83
2022/07/25 05:14:17;;;;;;;13.65;7.13;;;15.70;99.90;;;;;;10011607;29;20113;-81
2022/07/25 05:19:17;;;;;;;13.32;6.72;;;15.90;99.90;;;;;;10013160;29;20042;-81
2022/07/25 05:24:18;;;;;;;10.75;6.00;;;16.20;99.90;;;;;;10010446;29;20690;-81
2022/07/25 05:29:18;;;;;;;9.50;6.05;;;16.50;99.90;;;;;;10011951;29;20037;-81
2022/07/25 05:34:19;;;;;;;9.02;6.53;;;16.70;99.90;;;;;;10015159;29;20059;-84
2022/07/25 05:39:20;;;;;;;11.70;7.07;;;16.80;99.90;;;;;;10015561;29;20061;-82
2022/07/25 05:44:20;;;;;;;12.20;5.90;;;17.00;99.90;;;;;;10011756;29;20065;-82
2022/07/25 05:49:21;;;;;;;7.28;5.10;;;17.20;99.90;;;;;;10013805;29;20044;-82
2022/07/25 05:54:22;;;;;;;8.32;4.28;;;17.40;99.90;;;;;;9998052;29;20046;-81
2022/07/25 05:59:23;;;;;;;10.43;5.03;;;17.60;99.90;;;;;;10010044;29;20057;-82
2022/07/25 06:04:23;;;;;;;13.65;5.13;;;17.90;99.90;;;;;;10013671;29;20062;-83
2022/07/25 06:09:24;;;;;;;10.10;4.55;;;18.00;99.90;;;;;;10012426;29;20452;-82
2022/07/25 06:14:25;;;;;;;9.50;4.60;;;18.30;99.90;;;;;;10012169;29;20399;-82
2022/07/25 06:19:26;;;;;;;10.63;4.57;;;18.60;99.90;;;;;;9986644;29;20495;-83
2022/07/25 06:25:24;;;;;;;8.93;4.40;;;18.80;99.90;;;;;;9997956;29;20121;-83
2022/07/25 06:30:25;;;;;;;10.35;4.68;;;19.00;99.90;;;;;;9977264;29;20469;-83
2022/07/25 06:35:26;;;;;;;11.48;4.00;;;19.20;99.90;;;;;;10003429;29;20032;-82
2022/07/25 06:40:27;;;;;;;12.02;4.13;;;19.50;99.90;;;;;;10010490;29;20030;-83
2022/07/25 06:45:27;;;;;;;6.18;3.38;;;19.80;99.90;;;;;;10012082;29;20499;-83
2022/07/25 06:50:28;;;;;;;8.63;3.58;;;20.10;99.90;;;;;;10010010;29;20037;-83
2022/07/25 06:55:29;;;;;;;7.82;3.70;;;20.30;99.90;;;;;;10010209;29;20036;-83
2022/07/25 07:00:29;;;;;;;9.20;3.72;;;20.50;99.90;;;;;;10011476;29;20048;-83
2022/07/25 07:05:40;;;;;;;9.52;3.58;;;20.90;99.90;;;;;;10006484;29;20046;-83
2022/07/25 07:10:42;;;;;;;6.35;3.22;;;21.50;99.90;;;;;;9982422;29;20375;-83
2022/07/25 07:15:48;;;;;;;9.38;2.97;;;23.20;99.90;;;;;;10008072;29;20042;-82
2022/07/25 07:20:48;;;;;;;8.40;2.60;;;24.80;95.80;;;;;;10008298;29;20041;-82
2022/07/25 07:25:49;;;;;;;10.20;4.28;;;25.90;91.30;;;;;;10010915;29;20048;-83
2022/07/25 07:30:52;;;;;;;8.95;2.97;;;26.50;86.80;;;;;;10003643;29;20098;-85
2022/07/25 07:35:55;;;;;;;7.28;2.90;;;27.00;80.60;;;;;;10005872;29;20038;-83
2022/07/25 07:40:56;;;;;;;5.43;3.10;;;27.50;77.00;;;;;;10008057;29;20048;-82
2022/07/25 07:45:59;;;;;;;2.95;2.45;;;27.70;74.10;;;;;;9982497;29;20061;-82
2022/07/25 07:51:00;;;;;;;6.00;2.67;;;27.60;73.10;;;;;;9966224;29;20069;-82
2022/07/25 07:56:01;;;;;;;4.28;2.30;;;27.20;72.20;;;;;;9971671;29;20536;-83
2022/07/25 08:01:02;;;;;;;4.90;2.10;;;26.90;70.40;;;;;;9967561;29;20079;-82
2022/07/25 08:06:03;;;;;;;4.43;2.17;;;26.80;70.00;;;;;;9971357;29;20119;-83
2022/07/25 08:11:04;;;;;;;5.45;2.58;;;26.60;68.60;;;;;;9971898;29;20498;-83
2022/07/25 08:16:05;;;;;;;3.78;2.25;;;26.80;70.30;;;;;;9971031;29;20045;-84
2022/07/25 08:21:06;;;;;;;4.75;2.42;;;26.80;69.70;;;;;;9965676;29;20067;-81
2022/07/25 08:26:06;;;;;;;3.33;2.33;;;26.60;68.80;;;;;;9970305;29;20083;-83
2022/07/25 08:31:07;;;;;;;3.22;1.88;;;26.40;68.80;;;;;;9971822;29;20042;-87
2022/07/25 08:36:09;;;;;;;4.78;2.20;;;26.70;67.80;;;;;;9971580;29;20046;-83
2022/07/25 08:41:10;;;;;;;5.00;2.30;;;26.90;68.10;;;;;;9968264;29;20064;-83
2022/07/25 08:46:11;;;;;;;6.25;2.90;;;27.10;66.30;;;;;;9970388;29;20065;-83
2022/07/25 08:51:12;;;;;;;6.22;3.42;;;27.00;62.10;;;;;;9968431;29;20042;-83
2022/07/25 08:56:13;;;;;;;6.53;3.22;;;27.10;64.80;;;;;;9970617;29;20336;-83
2022/07/25 09:01:14;;;;;;;4.28;1.88;;;27.60;67.30;;;;;;9971844;29;20102;-83
2022/07/25 09:06:33;;;;;;;6.88;2.30;;;28.10;63.80;;;;;;9972002;29;20042;-83
2022/07/25 09:11:36;;;;;;;5.13;2.00;;;28.30;64.60;;;;;;9968532;29;20453;-85
2022/07/25 09:16:40;;;;;;;2.90;1.98;;;28.60;61.80;;;;;;9954351;29;20078;-83
2022/07/25 09:21:43;;;;;;;3.88;1.98;;;28.70;62.60;;;;;;9972114;29;20033;-85
2022/07/25 09:26:48;;;;;;;3.35;1.85;;;28.60;62.50;;;;;;9972571;29;20030;-83
2022/07/25 09:31:49;;;;;;;6.15;2.65;;;28.50;62.20;;;;;;9969184;29;20026;-86
2022/07/25 09:36:54;;;;;;;3.60;2.13;;;28.40;62.60;;;;;;9979693;29;20052;-86
2022/07/25 09:41:54;;;;;;;4.65;2.00;;;28.50;61.20;;;;;;9976345;29;20038;-82
2022/07/25 09:46:57;;;;;;;4.72;2.10;;;28.90;61.90;;;;;;9977103;29;20073;-84
2022/07/25 09:51:58;;;;;;;6.93;2.42;;;29.20;61.60;;;;;;9974899;29;20026;-85
2022/07/25 09:56:59;;;;;;;4.50;2.63;;;29.40;60.20;;;;;;9976377;29;20046;-85
2022/07/25 10:02:05;;;;;;;4.10;2.20;;;29.40;60.80;;;;;;9974847;29;20285;-87
2022/07/25 10:07:12;;;;;;;9.45;2.20;;;29.60;60.70;;;;;;9971576;29;20046;-85
2022/07/25 10:12:23;;;;;;;2.83;1.88;;;29.60;59.40;;;;;;9971062;29;20030;-83
2022/07/25 10:17:24;;;;;;;4.68;1.92;;;29.60;60.20;;;;;;9962777;29;20050;-84
2022/07/25 10:22:43;;;;;;;7.35;2.22;;;29.60;59.30;;;;;;9974241;29;20038;-83
2022/07/25 10:27:49;;;;;;;5.22;2.28;;;29.50;56.30;;;;;;9965877;29;20046;-84
2022/07/25 10:32:59;;;;;;;4.18;2.38;;;29.70;58.40;;;;;;9974569;29;20142;-86
2022/07/25 10:38:02;;;;;;;4.07;1.67;;;29.50;58.50;;;;;;9958244;29;20424;-84
2022/07/25 10:43:24;;;;;;;5.33;2.37;;;29.60;57.80;;;;;;9951901;29;20843;-84
2022/07/25 10:48:30;;;;;;;6.75;1.88;;;29.80;57.90;;;;;;9969486;29;20026;-88
2022/07/25 10:53:42;;;;;;;2.67;1.73;;;29.70;57.80;;;;;;9974506;29;20039;-83
2022/07/25 10:58:55;;;;;;;4.97;2.20;;;29.80;58.80;;;;;;9965937;29;20038;-83
2022/07/25 11:04:04;;;;;;;9.00;2.97;;;30.30;57.70;;;;;;9968418;29;20038;-87
2022/07/25 11:09:25;;;;;;;5.82;1.92;;;30.40;57.60;;;;;;9962483;29;20050;-84
2022/07/25 11:14:36;;;;;;;5.55;1.98;;;30.60;58.90;;;;;;9971854;29;20035;-85
2022/07/25 11:19:37;;;;;;;3.03;2.03;;;30.80;56.00;;;;;;9957133;29;20039;-83
2022/07/25 11:24:43;;;;;;;3.97;2.08;;;30.90;54.00;;;;;;9970992;29;20400;-84
2022/07/25 11:29:44;;;;;;;2.30;1.90;;;31.00;55.00;;;;;;9970380;29;20095;-84
2022/07/25 11:34:51;;;;;;;2.15;1.50;;;31.00;56.60;;;;;;9972103;29;20031;-84
2022/07/25 11:39:51;;;;;;;4.13;1.63;;;31.10;53.70;;;;;;9972355;29;20500;-88
2022/07/25 11:44:53;;;;;;;4.90;1.77;;;31.10;54.10;;;;;;9986834;29;20058;-84
2022/07/25 11:49:55;;;;;;;3.38;1.58;;;30.90;50.70;;;;;;9995159;29;20030;-84
2022/07/25 11:55:04;;;;;;;4.10;1.80;;;30.90;53.90;;;;;;9994383;29;20034;-88
2022/07/25 12:00:15;;;;;;;4.85;3.13;;;30.70;52.80;;;;;;10005141;29;20049;-84
2022/07/25 12:05:19;;;;;;;3.22;1.65;;;30.70;55.70;;;;;;10008134;29;20072;-85
2022/07/25 12:10:31;;;;;;;4.03;1.55;;;30.90;55.30;;;;;;9995187;29;20133;-85
2022/07/25 12:15:41;;;;;;;2.92;1.70;;;31.20;54.70;;;;;;10009504;29;20030;-85
2022/07/25 12:20:42;;;;;;;3.30;1.55;;;31.50;54.40;;;;;;10004005;29;20085;-86
2022/07/25 12:25:45;;;;;;;2.53;1.77;;;31.60;54.50;;;;;;10009073;29;20030;-83
2022/07/25 12:30:47;;;;;;;2.13;1.50;;;31.60;51.40;;;;;;10007417;29;20040;-83
2022/07/25 12:35:47;;;;;;;2.60;1.42;;;31.60;51.80;;;;;;10010031;29;20042;-85
2022/07/25 12:40:49;;;;;;;3.05;1.65;;;31.60;52.30;;;;;;9992655;29;20089;-84
2022/07/25 12:45:49;;;;;;;9.20;1.67;;;31.60;51.50;;;;;;9998887;29;20499;-85
2022/07/25 12:50:50;;;;;;;3.92;1.38;;;31.70;51.90;;;;;;9996606;29;20141;-85
2022/07/25 12:55:51;;;;;;;1.92;1.58;;;31.70;49.20;;;;;;9993947;29;20045;-83
2022/07/25 13:00:51;;;;;;;2.38;1.23;;;31.40;48.30;;;;;;10017379;29;20026;-85
2022/07/25 13:05:52;;;;;;;1.90;1.40;;;31.10;53.50;;;;;;9995565;29;20061;-85
2022/07/25 13:10:52;;;;;;;3.13;1.65;;;30.90;47.80;;;;;;9997755;29;20026;-86
2022/07/25 13:15:53;;;;;;;3.03;1.55;;;31.00;52.50;;;;;;10012822;29;20046;-83
2022/07/25 13:20:53;;;;;;;1.63;1.20;;;31.30;49.00;;;;;;10010575;29;20026;-82
2022/07/25 13:25:54;;;;;;;1.77;1.20;;;31.10;50.00;;;;;;9996718;29;20033;-83
2022/07/25 13:30:55;;;;;;;2.20;1.75;;;31.30;49.10;;;;;;10015102;29;20038;-83
2022/07/25 13:35:56;;;;;;;1.80;1.52;;;31.30;49.90;;;;;;10013667;29;20049;-83
2022/07/25 13:40:57;;;;;;;1.38;1.25;;;31.50;48.90;;;;;;10009478;29;20059;-84
2022/07/25 13:45:58;;;;;;;1.70;1.30;;;31.50;48.10;;;;;;9996616;29;20054;-85
2022/07/25 13:50:59;;;;;;;3.55;1.35;;;31.10;48.50;;;;;;10012672;29;20034;-84
2022/07/25 13:56:00;;;;;;;3.33;1.17;;;31.10;49.10;;;;;;10013521;29;20782;-83
2022/07/25 14:01:01;;;;;;;13.10;1.77;;;31.10;50.20;;;;;;10013712;29;20042;-85
2022/07/25 14:06:03;;;;;;;2.13;1.40;;;31.00;48.60;;;;;;10012261;29;20061;-83
2022/07/25 14:11:04;;;;;;;3.35;1.23;;;30.80;50.50;;;;;;10012350;29;20034;-84
2022/07/25 14:16:05;;;;;;;5.90;1.27;;;30.80;48.90;;;;;;10009654;29;20041;-85
2022/07/25 14:21:06;;;;;;;1.83;1.17;;;30.70;50.80;;;;;;9992644;29;20090;-84
2022/07/25 14:26:06;;;;;;;3.08;1.25;;;30.60;48.70;;;;;;10008432;29;20090;-85
2022/07/25 14:31:07;;;;;;;1.27;0.90;;;30.50;48.30;;;;;;10015889;29;20130;-91
2022/07/25 14:36:08;;;;;;;1.20;1.10;;;30.40;48.60;;;;;;9993586;29;20674;-87
2022/07/25 14:41:09;;;;;;;1.70;1.10;;;30.30;48.80;;;;;;10010495;29;20557;-88
2022/07/25 14:46:10;;;;;;;1.08;0.90;;;30.10;48.10;;;;;;9994469;29;20053;-88
2022/07/25 14:51:10;;;;;;;1.98;1.20;;;29.90;46.90;;;;;;9994165;29;20482;-87
2022/07/25 14:56:11;;;;;;;1.10;0.93;;;29.80;49.00;;;;;;9990148;29;20497;-86
2022/07/25 15:01:11;;;;;;;1.20;1.10;;;29.70;49.40;;;;;;10010463;29;20065;-85
2022/07/25 15:06:12;;;;;;;2.20;0.93;;;29.60;49.50;;;;;;9992114;29;20038;-86
2022/07/25 15:11:12;;;;;;;1.08;0.90;;;29.50;48.90;;;;;;10010013;29;20618;-87
2022/07/25 15:16:13;;;;;;;1.40;0.85;;;29.40;50.70;;;;;;9994851;29;20038;-86
2022/07/25 15:21:14;;;;;;;1.35;0.82;;;29.30;47.30;;;;;;9986718;29;20526;-87
2022/07/25 15:26:14;;;;;;;1.35;0.90;;;29.10;47.80;;;;;;9993324;29;20033;-86
2022/07/25 15:31:16;;;;;;;2.35;1.10;;;29.10;50.30;;;;;;10009387;29;20052;-85
2022/07/25 15:36:18;;;;;;;1.08;0.98;;;29.10;51.00;;;;;;9991610;29;20050;-87
2022/07/25 15:41:18;;;;;;;2.47;1.23;;;29.00;50.10;;;;;;10005737;29;20042;-87
2022/07/25 15:46:19;;;;;;;4.72;3.08;;;28.90;49.30;;;;;;10006875;29;20049;-87
2022/07/25 15:51:21;;;;;;;8.55;7.78;;;29.00;50.60;;;;;;10007718;29;20670;-84
2022/07/25 15:56:22;;;;;;;2.03;1.30;;;28.90;50.60;;;;;;10008686;29;20041;-87
2022/07/25 16:01:22;;;;;;;1.50;1.30;;;28.80;50.10;;;;;;10007422;29;20073;-87
2022/07/25 16:06:23;;;;;;;2.88;1.42;;;28.70;51.50;;;;;;10006642;29;20049;-87
2022/07/25 16:11:23;;;;;;;1.55;1.30;;;28.70;51.80;;;;;;9993140;29;20055;-85
2022/07/25 16:16:24;;;;;;;4.45;2.90;;;28.70;49.90;;;;;;10002602;29;20101;-85
2022/07/25 16:21:24;;;;;;;2.33;2.03;;;28.60;51.60;;;;;;10009570;29;20026;-86
2022/07/25 16:26:25;;;;;;;1.77;1.30;;;28.50;50.10;;;;;;9992164;29;20507;-87
2022/07/25 16:31:26;;;;;;;0.93;0.88;;;28.50;51.20;;;;;;10007781;29;20044;-83
2022/07/25 16:36:27;;;;;;;4.45;1.10;;;28.40;51.00;;;;;;10012652;29;20631;-83
2022/07/25 16:41:29;;;;;;;3.58;2.03;;;28.30;50.50;;;;;;10012504;29;20082;-85
2022/07/25 16:46:29;;;;;;;3.55;2.30;;;28.20;51.80;;;;;;10015618;29;20050;-83
2022/07/25 16:51:30;;;;;;;2.35;1.10;;;28.00;50.50;;;;;;10015000;29;20042;-85
2022/07/25 16:56:31;;;;;;;4.22;1.30;;;27.90;49.90;;;;;;9997804;29;20053;-84
2022/07/25 17:01:33;;;;;;;2.65;1.50;;;27.80;51.60;;;;;;10013417;29;20410;-83
2022/07/25 17:06:34;;;;;;;1.60;1.30;;;27.70;53.70;;;;;;10012354;29;20029;-83
2022/07/25 17:11:35;;;;;;;2.58;1.10;;;27.50;55.50;;;;;;10012466;29;20481;-83
2022/07/25 17:16:36;;;;;;;6.90;3.55;;;27.10;55.90;;;;;;10013544;29;20042;-85
2022/07/25 17:21:37;;;;;;;3.55;1.67;;;26.80;56.20;;;;;;10013519;29;20121;-84
2022/07/25 17:26:37;;;;;;;2.83;1.50;;;26.50;57.80;;;;;;10012884;29;20030;-84
2022/07/25 17:31:38;;;;;;;2.20;1.33;;;26.10;60.00;;;;;;10008101;29;20426;-83
2022/07/25 17:36:38;;;;;;;2.08;1.30;;;25.80;59.80;;;;;;10012425;29;20033;-83
2022/07/25 17:41:39;;;;;;;3.20;1.58;;;25.50;61.40;;;;;;10002402;29;20033;-83
2022/07/25 17:46:40;;;;;;;2.38;1.30;;;25.10;61.60;;;;;;9980793;29;20145;-83
2022/07/25 17:52:33;;;;;;;4.78;3.15;;;24.80;64.60;;;;;;9992191;29;20545;-84
2022/07/25 17:57:34;;;;;;;4.10;3.22;;;24.40;65.40;;;;;;10005991;29;20046;-83
2022/07/25 18:02:35;;;;;;;3.05;2.13;;;24.20;65.50;;;;;;10009621;29;20554;-87
2022/07/25 18:07:39;;;;;;;2.88;2.30;;;23.90;66.80;;;;;;10010958;29;20120;-83
2022/07/25 18:12:40;;;;;;;3.28;1.90;;;23.70;67.90;;;;;;10014792;29;20037;-84
2022/07/25 18:17:42;;;;;;;5.28;2.10;;;23.50;68.20;;;;;;10012870;29;20411;-86
2022/07/25 18:22:42;;;;;;;4.70;2.35;;;23.30;69.80;;;;;;9994019;29;20040;-80
2022/07/25 18:27:44;;;;;;;4.65;1.95;;;23.10;70.40;;;;;;10002507;29;20060;-80
2022/07/25 18:32:45;;;;;;;4.53;1.63;;;22.80;71.40;;;;;;10012911;29;20117;-80
2022/07/25 18:37:46;;;;;;;3.53;2.25;;;22.70;72.20;;;;;;10008188;29;20674;-81
2022/07/25 18:42:46;;;;;;;8.40;2.53;;;22.60;73.10;;;;;;10007527;29;20032;-81
2022/07/25 18:47:47;;;;;;;5.68;2.70;;;22.50;72.60;;;;;;10006244;29;20053;-82
2022/07/25 18:52:48;;;;;;;4.75;2.40;;;22.50;72.30;;;;;;10011312;29;20064;-81
2022/07/25 18:57:48;;;;;;;4.60;2.30;;;22.40;73.20;;;;;;10009089;29;20628;-82
2022/07/25 19:02:49;;;;;;;7.45;2.80;;;22.20;74.20;;;;;;10010217;29;20034;-82
2022/07/25 19:07:50;;;;;;;3.28;2.63;;;22.10;74.50;;;;;;10005415;29;20026;-88
2022/07/25 19:12:51;;;;;;;3.85;2.40;;;21.90;74.50;;;;;;9982487;29;20050;-82
2022/07/25 19:17:51;;;;;;;4.47;2.60;;;21.60;74.80;;;;;;10006650;29;20487;-82
2022/07/25 19:22:52;;;;;;;4.68;2.65;;;21.40;76.10;;;;;;10010636;29;20497;-81
2022/07/25 19:27:52;;;;;;;5.97;3.00;;;21.20;76.40;;;;;;10007510;29;20113;-82
2022/07/25 19:32:53;;;;;;;3.88;2.10;;;21.10;76.00;;;;;;10009067;29;20116;-82
2022/07/25 19:37:53;;;;;;;3.72;2.05;;;21.00;76.30;;;;;;9999591;29;20744;-81
2022/07/25 19:42:54;;;;;;;4.32;1.85;;;20.90;75.60;;;;;;10005561;29;20030;-81
2022/07/25 19:47:55;;;;;;;7.22;2.53;;;20.90;75.80;;;;;;10007195;29;20081;-81
2022/07/25 19:52:55;;;;;;;5.82;2.55;;;20.80;76.90;;;;;;10004799;29;20067;-81
2022/07/25 19:57:56;;;;;;;3.92;2.20;;;20.70;76.60;;;;;;10008543;29;20049;-81
2022/07/25 20:02:56;;;;;;;3.17;2.05;;;20.60;77.10;;;;;;10008873;29;20527;-81
2022/07/25 20:07:57;;;;;;;0.75;0.75;;;20.60;77.20;;;;;;10006837;29;20116;-82
2022/07/25 20:12:58;;;;;;;2.05;1.48;;;20.60;77.30;;;;;;10007378;29;20046;-83
2022/07/25 20:17:59;;;;;;;1.88;1.35;;;20.60;77.40;;;;;;10008592;29;20843;-82
2022/07/25 20:23:00;;;;;;;5.05;2.90;;;20.50;77.80;;;;;;10009458;29;20038;-84
2022/07/25 20:28:01;;;;;;;7.30;3.65;;;20.40;79.40;;;;;;10006016;29;20395;-84
2022/07/25 20:33:01;;;;;;;5.35;2.75;;;20.30;79.30;;;;;;10007046;29;20033;-82
2022/07/25 20:38:02;;;;;;;5.68;3.22;;;20.20;79.60;;;;;;10008267;29;20121;-83
2022/07/25 20:43:03;;;;;;;4.03;2.72;;;20.10;80.20;;;;;;10007657;29;20032;-82
2022/07/25 20:48:04;;;;;;;3.95;2.80;;;19.90;81.30;;;;;;10009146;29;20506;-81
2022/07/25 20:53:06;;;;;;;5.60;3.33;;;19.90;81.30;;;;;;10008371;29;20037;-82
2022/07/25 20:58:06;;;;;;;4.60;2.60;;;19.80;82.20;;;;;;10002756;29;20038;-83
2022/07/25 21:03:07;;;;;;;5.53;3.10;;;19.70;83.50;;;;;;10008929;29;20042;-83
2022/07/25 21:08:09;;;;;;;4.00;3.13;;;19.50;83.50;;;;;;10009182;29;20038;-82
2022/07/25 21:13:10;;;;;;;3.70;2.80;;;19.40;84.00;;;;;;9986960;29;20041;-82
2022/07/25 21:18:12;;;;;;;5.10;3.17;;;19.30;84.30;;;;;;10011187;29;20054;-81
2022/07/25 21:23:14;;;;;;;4.47;3.22;;;19.30;85.90;;;;;;10010236;29;20030;-81
2022/07/25 21:28:15;;;;;;;5.13;3.22;;;19.30;85.20;;;;;;10013464;29;20041;-82
2022/07/25 21:33:15;;;;;;;5.40;3.42;;;19.20;85.80;;;;;;10011156;29;20626;-82
2022/07/25 21:38:16;;;;;;;6.82;3.47;;;19.20;86.40;;;;;;10014920;29;20124;-82
2022/07/25 21:43:17;;;;;;;5.20;3.10;;;19.10;87.30;;;;;;10011856;29;20099;-82
2022/07/25 21:48:17;;;;;;;4.88;3.47;;;19.00;87.60;;;;;;10015502;29;20037;-82
2022/07/25 21:53:18;;;;;;;4.78;3.13;;;19.00;87.60;;;;;;10014476;29;20034;-82
2022/07/25 21:58:20;;;;;;;6.07;3.00;;;18.90;88.50;;;;;;10011499;29;20554;-82
2022/07/25 22:03:21;;;;;;;4.03;3.55;;;18.90;88.60;;;;;;10008227;29;20042;-82
2022/07/25 22:08:21;;;;;;;5.93;3.30;;;18.90;89.00;;;;;;10014562;29;20038;-82
2022/07/25 22:13:22;;;;;;;5.28;3.60;;;18.80;90.10;;;;;;10013461;29;20038;-81
2022/07/25 22:18:23;;;;;;;6.55;3.33;;;18.80;90.20;;;;;;10012610;29;20617;-82
2022/07/25 22:23:23;;;;;;;8.80;3.75;;;18.70;90.60;;;;;;10011061;29;20556;-82
2022/07/25 22:28:24;;;;;;;5.80;3.30;;;18.70;91.10;;;;;;10008309;29;20061;-82
2022/07/25 22:33:27;;;;;;;6.70;3.42;;;18.60;91.20;;;;;;10012367;29;20026;-82
2022/07/25 22:38:27;;;;;;;7.88;3.45;;;18.50;91.80;;;;;;10013180;29;20555;-82
2022/07/25 22:43:28;;;;;;;5.18;3.10;;;18.50;92.30;;;;;;10010204;29;20054;-82
2022/07/25 22:48:29;;;;;;;5.63;3.65;;;18.40;92.30;;;;;;10012187;29;20591;-82
2022/07/25 22:53:29;;;;;;;4.60;3.13;;;18.40;93.00;;;;;;10011866;29;20427;-82
2022/07/25 22:58:30;;;;;;;9.48;4.07;;;18.40;93.40;;;;;;9992149;29;20042;-83
2022/07/25 23:03:30;;;;;;;5.88;3.35;;;18.30;94.10;;;;;;10010428;29;20062;-82
2022/07/25 23:08:31;;;;;;;9.00;3.38;;;18.20;95.20;;;;;;9995639;29;20046;-83
2022/07/25 23:13:32;;;;;;;6.72;3.38;;;18.10;95.30;;;;;;10011201;29;20094;-82
2022/07/25 23:18:33;;;;;;;7.15;3.83;;;18.10;95.60;;;;;;10010917;29;20045;-82
2022/07/25 23:23:34;;;;;;;6.70;3.63;;;18.10;96.30;;;;;;9994085;29;20624;-82
2022/07/25 23:28:34;;;;;;;7.13;3.85;;;18.10;96.30;;;;;;10011383;29;20390;-82
2022/07/25 23:33:35;;;;;;;5.57;3.33;;;18.10;96.80;;;;;;10010573;29;20049;-82
2022/07/25 23:38:36;;;;;;;7.13;3.53;;;18.10;97.20;;;;;;10011510;29;20054;-82
2022/07/25 23:43:36;;;;;;;7.68;3.40;;;18.00;97.30;;;;;;10007855;29;20066;-82
2022/07/25 23:48:37;;;;;;;6.78;3.80;;;18.00;97.80;;;;;;9997641;29;20053;-82
2022/07/25 23:53:38;;;;;;;6.15;4.00;;;17.90;97.70;;;;;;10010277;29;20125;-82
2022/07/25 23:58:38;;;;;;;7.53;4.32;;;17.90;97.60;;;;;;10009599;29;20817;-81
